createdAt,value
2023-04-20T00:00:41.533Z,66.78
2023-04-20T00:01:43.342Z,59.08
2023-04-20T00:02:47.499Z,56.22
2023-04-20T00:03:49.598Z,56.33
2023-04-20T00:04:53.279Z,54.05
2023-04-20T00:05:55.162Z,52.63
2023-04-20T00:06:58.690Z,53.30
2023-04-20T00:08:01.164Z,52.10
2023-04-20T00:09:04.628Z,59.53
2023-04-20T00:10:08.809Z,62.08
2023-04-20T00:11:11.572Z,57.78
2023-04-20T00:12:13.354Z,62.05
2023-04-20T00:13:16.144Z,58.30
2023-04-20T00:14:18.841Z,59.92
2023-04-20T00:15:21.646Z,56.63
2023-04-20T00:16:23.511Z,56.80
2023-04-20T00:17:26.428Z,63.75
2023-04-20T00:18:29.579Z,57.70
2023-04-20T00:19:33.784Z,57.35
2023-04-20T00:20:35.913Z,59.45
2023-04-20T00:21:38.753Z,61.88
2023-04-20T00:22:40.692Z,62.58
2023-04-20T00:23:43.497Z,60.47
2023-04-20T00:24:45.310Z,60.10
2023-04-20T00:25:49.656Z,60.80
2023-04-20T00:26:51.462Z,57.13
2023-04-20T00:27:54.568Z,56.55
2023-04-20T00:28:56.525Z,59.17
2023-04-20T00:29:59.354Z,57.00
2023-04-20T00:31:01.621Z,58.90
2023-04-20T00:32:04.820Z,61.50
2023-04-20T00:33:06.627Z,57.75
2023-04-20T00:34:11.950Z,55.13
2023-04-20T00:35:13.900Z,59.40
2023-04-20T00:36:16.742Z,57.17
2023-04-20T00:37:18.516Z,59.47
2023-04-20T00:38:21.340Z,58.25
2023-04-20T00:39:23.153Z,54.20
2023-04-20T00:40:25.936Z,54.50
2023-04-20T00:41:27.871Z,55.40
2023-04-20T00:42:30.693Z,54.67
2023-04-20T00:43:32.547Z,58.50
2023-04-20T00:44:35.519Z,52.90
2023-04-20T00:45:37.469Z,54.65
2023-04-20T00:46:41.262Z,55.78
2023-04-20T00:47:43.511Z,56.35
2023-04-20T00:48:46.467Z,56.13
2023-04-20T00:49:49.822Z,51.83
2023-04-20T00:50:53.474Z,54.75
2023-04-20T00:51:55.623Z,54.40
2023-04-20T00:52:58.501Z,57.35
2023-04-20T00:54:00.601Z,61.88
2023-04-20T00:55:04.648Z,53.47
2023-04-20T00:56:07.408Z,52.22
2023-04-20T00:57:12.442Z,48.22
2023-04-20T00:58:14.278Z,57.83
2023-04-20T00:59:17.377Z,56.40
2023-04-20T01:00:21.360Z,55.50
2023-04-20T01:01:24.783Z,49.92
2023-04-20T01:02:27.966Z,56.10
2023-04-20T01:03:31.500Z,55.95
2023-04-20T01:04:36.159Z,53.38
2023-04-20T01:05:40.513Z,56.67
2023-04-20T01:06:42.754Z,58.03
2023-04-20T01:07:45.726Z,58.97
2023-04-20T01:08:48.913Z,57.15
2023-04-20T01:09:51.785Z,54.47
2023-04-20T01:10:54.119Z,55.38
2023-04-20T01:11:57.006Z,57.67
2023-04-20T01:12:59.621Z,56.40
2023-04-20T01:14:02.441Z,55.33
2023-04-20T01:15:08.098Z,56.90
2023-04-20T01:16:11.696Z,55.72
2023-04-20T01:17:15.040Z,55.05
2023-04-20T01:18:21.475Z,51.80
2023-04-20T01:19:23.948Z,53.65
2023-04-20T01:20:26.725Z,53.20
2023-04-20T01:21:31.067Z,55.78
2023-04-20T01:22:44.324Z,52.33
2023-04-20T01:23:48.908Z,51.05
2023-04-20T01:24:51.974Z,49.50
2023-04-20T01:25:55.877Z,50.92
2023-04-20T01:26:57.766Z,47.40
2023-04-20T01:28:02.050Z,50.00
2023-04-20T01:29:04.423Z,48.83
2023-04-20T01:30:08.434Z,52.58
2023-04-20T01:31:13.663Z,49.03
2023-04-20T01:32:16.845Z,49.40
2023-04-20T01:33:18.613Z,47.47
2023-04-20T01:34:21.430Z,51.20
2023-04-20T01:35:23.309Z,45.72
2023-04-20T01:36:26.077Z,45.20
2023-04-20T01:37:27.905Z,47.83
2023-04-20T01:38:34.513Z,45.35
2023-04-20T01:39:36.737Z,47.13
2023-04-20T01:40:40.269Z,45.58
2023-04-20T01:41:42.166Z,46.95
2023-04-20T01:42:44.949Z,49.03
2023-04-20T01:43:46.770Z,47.47
2023-04-20T01:44:49.763Z,45.28
2023-04-20T01:45:51.616Z,49.63
2023-04-20T01:46:54.775Z,45.78
2023-04-20T01:47:56.713Z,46.90
2023-04-20T01:48:59.531Z,44.10
2023-04-20T01:50:01.403Z,42.38
2023-04-20T01:51:04.515Z,41.65
2023-04-20T01:52:09.065Z,42.92
2023-04-20T01:53:13.634Z,39.55
2023-04-20T01:54:17.153Z,39.13
2023-04-20T01:55:20.749Z,40.85
2023-04-20T01:56:22.561Z,42.42
2023-04-20T01:57:25.697Z,39.67
2023-04-20T01:58:27.524Z,40.50
2023-04-20T01:59:30.712Z,40.05
2023-04-20T02:00:33.283Z,44.08
2023-04-20T02:01:36.127Z,45.42
2023-04-20T02:02:37.984Z,46.83
2023-04-20T02:03:41.250Z,47.47
2023-04-20T02:04:43.214Z,38.78
2023-04-20T02:05:46.600Z,36.60
2023-04-20T02:06:48.929Z,38.10
2023-04-20T02:07:51.818Z,39.95
2023-04-20T02:08:53.633Z,43.17
2023-04-20T02:09:58.026Z,46.65
2023-04-20T02:10:59.904Z,43.58
2023-04-20T02:12:03.208Z,45.47
2023-04-20T02:13:05.255Z,38.38
2023-04-20T02:14:08.192Z,42.38
2023-04-20T02:15:10.755Z,40.83
2023-04-20T02:16:14.023Z,38.70
2023-04-20T02:17:15.877Z,42.03
2023-04-20T02:18:18.781Z,40.58
2023-04-20T02:19:21.252Z,46.20
2023-04-20T02:20:24.276Z,38.63
2023-04-20T02:21:26.150Z,42.67
2023-04-20T02:22:29.423Z,46.20
2023-04-20T02:23:31.284Z,46.97
2023-04-20T02:24:34.816Z,45.03
2023-04-20T02:25:40.582Z,45.05
2023-04-20T02:26:42.628Z,43.40
2023-04-20T02:27:45.484Z,42.45
2023-04-20T02:28:47.642Z,43.10
2023-04-20T02:29:50.402Z,42.30
2023-04-20T02:30:52.219Z,42.03
2023-04-20T02:31:55.450Z,44.85
2023-04-20T02:32:57.293Z,46.85
2023-04-20T02:34:00.140Z,40.90
2023-04-20T02:35:03.949Z,44.90
2023-04-20T02:36:06.972Z,42.67
2023-04-20T02:37:08.804Z,40.65
2023-04-20T02:38:11.630Z,40.67
2023-04-20T02:39:14.203Z,39.65
2023-04-20T02:40:17.017Z,38.08
2023-04-20T02:41:20.505Z,40.47
2023-04-20T02:42:23.618Z,38.90
2023-04-20T02:43:25.756Z,41.90
2023-04-20T02:44:29.049Z,39.53
2023-04-20T02:45:31.163Z,39.72
2023-04-20T02:46:34.713Z,41.22
2023-04-20T02:47:36.808Z,42.78
2023-04-20T02:48:39.618Z,38.63
2023-04-20T02:49:41.479Z,38.28
2023-04-20T02:50:44.404Z,42.40
2023-04-20T02:51:51.609Z,42.67
2023-04-20T02:52:54.729Z,38.13
2023-04-20T02:53:56.583Z,43.22
2023-04-20T02:55:04.974Z,45.13
2023-04-20T02:56:07.544Z,44.28
2023-04-20T02:57:38.159Z,43.92
2023-04-20T02:58:40.415Z,46.97
2023-04-20T02:59:54.814Z,43.65
2023-04-20T03:01:02.113Z,42.33
2023-04-20T03:02:06.430Z,47.25
2023-04-20T03:03:10.101Z,44.55
2023-04-20T03:04:13.188Z,44.60
2023-04-20T03:05:23.003Z,41.40
2023-04-20T03:06:26.592Z,46.88
2023-04-20T03:07:30.906Z,42.60
2023-04-20T03:08:33.753Z,44.20
2023-04-20T03:09:48.206Z,46.75
2023-04-20T03:10:57.515Z,40.78
2023-04-20T03:12:02.536Z,46.72
2023-04-20T03:13:24.904Z,43.55
2023-04-20T03:14:33.525Z,42.25
2023-04-20T03:15:36.448Z,44.67
2023-04-20T03:16:47.368Z,43.80
2023-04-20T03:17:51.193Z,44.17
2023-04-20T03:18:53.499Z,40.83
2023-04-20T03:19:57.628Z,43.05
2023-04-20T03:20:59.605Z,43.13
2023-04-20T03:22:04.402Z,44.13
2023-04-20T03:23:07.249Z,47.33
2023-04-20T03:24:11.745Z,48.47
2023-04-20T03:25:14.947Z,48.03
2023-04-20T03:26:29.133Z,46.00
2023-04-20T03:27:53.103Z,49.17
2023-04-20T03:28:56.726Z,47.10
2023-04-20T03:30:01.795Z,47.55
2023-04-20T03:31:06.452Z,45.38
2023-04-20T03:32:09.392Z,48.83
2023-04-20T03:33:11.803Z,51.85
2023-04-20T03:34:14.810Z,49.00
2023-04-20T03:35:18.023Z,40.22
2023-04-20T03:36:20.877Z,44.38
2023-04-20T03:37:22.714Z,39.47
2023-04-20T03:38:28.611Z,46.13
2023-04-20T03:39:30.406Z,39.83
2023-04-20T03:40:33.208Z,42.90
2023-04-20T03:41:35.112Z,43.83
2023-04-20T03:42:38.219Z,46.08
2023-04-20T03:43:41.659Z,45.50
2023-04-20T03:44:46.861Z,45.25
2023-04-20T03:45:49.860Z,46.83
2023-04-20T03:46:53.861Z,51.97
2023-04-20T03:47:55.775Z,46.40
2023-04-20T03:48:58.654Z,47.60
2023-04-20T03:50:00.430Z,44.33
2023-04-20T03:51:03.349Z,47.95
2023-04-20T03:52:07.229Z,39.58
2023-04-20T03:53:10.055Z,45.08
2023-04-20T03:54:12.533Z,46.33
2023-04-20T03:55:15.773Z,46.65
2023-04-20T03:56:23.928Z,49.25
2023-04-20T03:57:27.031Z,46.50
2023-04-20T03:58:30.950Z,46.45
2023-04-20T03:59:47.977Z,47.92
2023-04-20T04:00:53.554Z,51.40
2023-04-20T04:01:57.177Z,54.22
2023-04-20T04:02:59.260Z,53.47
2023-04-20T04:04:04.596Z,50.17
2023-04-20T04:05:08.110Z,64.28
2023-04-20T04:06:11.562Z,53.55
2023-04-20T04:07:14.047Z,64.63
2023-04-20T04:08:18.594Z,70.93
2023-04-20T04:09:20.663Z,70.47
2023-04-20T04:10:23.628Z,60.88
2023-04-20T04:11:26.064Z,56.25
2023-04-20T04:12:29.091Z,55.50
2023-04-20T04:13:33.775Z,55.70
2023-04-20T04:14:37.861Z,49.95
2023-04-20T04:15:41.460Z,56.78
2023-04-20T04:16:48.563Z,52.42
2023-04-20T04:17:51.042Z,51.58
2023-04-20T04:18:53.954Z,49.55
2023-04-20T04:19:56.082Z,46.38
2023-04-20T04:20:59.011Z,53.25
2023-04-20T04:22:00.935Z,60.95
2023-04-20T04:23:07.551Z,61.28
2023-04-20T04:24:33.316Z,59.50
2023-04-20T04:25:43.119Z,52.25
2023-04-20T04:26:47.358Z,47.60
2023-04-20T04:27:51.073Z,48.33
2023-04-20T04:28:55.656Z,51.17
2023-04-20T04:29:57.669Z,53.03
2023-04-20T04:31:05.890Z,52.03
2023-04-20T04:32:09.610Z,57.33
2023-04-20T04:33:14.757Z,54.33
2023-04-20T04:34:20.408Z,56.65
2023-04-20T04:35:27.348Z,55.08
2023-04-20T04:36:33.574Z,52.45
2023-04-20T04:37:37.087Z,53.42
2023-04-20T04:38:41.579Z,61.38
2023-04-20T04:39:44.762Z,57.15
2023-04-20T04:40:56.404Z,49.13
2023-04-20T04:41:59.599Z,48.55
2023-04-20T04:43:10.039Z,49.40
2023-04-20T04:44:15.504Z,44.67
2023-04-20T04:45:18.544Z,45.17
2023-04-20T04:46:25.476Z,44.05
2023-04-20T04:47:29.772Z,45.55
2023-04-20T04:48:33.195Z,41.80
2023-04-20T04:49:35.842Z,46.42
2023-04-20T04:50:39.053Z,39.75
2023-04-20T04:51:41.423Z,39.30
2023-04-20T04:52:44.287Z,39.80
2023-04-20T04:53:47.468Z,44.88
2023-04-20T04:54:50.806Z,39.75
2023-04-20T04:55:52.720Z,49.05
2023-04-20T04:56:55.671Z,45.45
2023-04-20T04:57:57.627Z,45.40
2023-04-20T04:59:00.491Z,45.10
2023-04-20T05:00:02.405Z,49.97
2023-04-20T05:01:06.447Z,46.58
2023-04-20T05:02:09.773Z,50.45
2023-04-20T05:03:12.811Z,47.28
2023-04-20T05:04:15.032Z,49.05
2023-04-20T05:05:18.417Z,46.67
2023-04-20T05:06:21.538Z,47.17
2023-04-20T05:07:24.729Z,50.45
2023-04-20T05:08:27.478Z,48.78
2023-04-20T05:09:33.430Z,51.80
2023-04-20T05:10:36.307Z,45.58
2023-04-20T05:11:38.200Z,49.40
2023-04-20T05:12:40.977Z,49.70
2023-04-20T05:13:42.968Z,46.58
2023-04-20T05:14:45.779Z,46.03
2023-04-20T05:15:47.923Z,47.70
2023-04-20T05:16:51.867Z,50.53
2023-04-20T05:17:55.997Z,60.30
2023-04-20T05:18:57.870Z,53.75
2023-04-20T05:20:00.829Z,49.85
2023-04-20T05:21:02.675Z,50.70
2023-04-20T05:22:06.060Z,54.30
2023-04-20T05:23:08.341Z,53.25
2023-04-20T05:24:11.219Z,56.45
2023-04-20T05:25:13.992Z,51.22
2023-04-20T05:26:18.183Z,47.63
2023-04-20T05:27:20.040Z,51.95
2023-04-20T05:28:22.834Z,61.40
2023-04-20T05:29:25.044Z,56.58
2023-04-20T05:30:27.842Z,51.17
2023-04-20T05:31:30.873Z,51.38
2023-04-20T05:32:33.871Z,51.17
2023-04-20T05:33:37.046Z,54.67
2023-04-20T05:34:39.806Z,49.35
2023-04-20T05:35:41.679Z,58.20
2023-04-20T05:36:44.456Z,60.20
2023-04-20T05:37:47.688Z,60.03
2023-04-20T05:38:50.743Z,59.85
2023-04-20T05:39:52.540Z,66.97
2023-04-20T05:40:57.049Z,59.65
2023-04-20T05:42:00.052Z,57.92
2023-04-20T05:43:03.099Z,54.88
2023-04-20T05:44:05.241Z,59.33
2023-04-20T05:45:09.507Z,55.33
2023-04-20T05:46:11.383Z,63.72
2023-04-20T05:47:14.289Z,69.15
2023-04-20T05:48:16.204Z,66.05
2023-04-20T05:49:20.386Z,68.55
2023-04-20T05:50:22.836Z,60.63
2023-04-20T05:51:28.997Z,61.88
2023-04-20T05:52:30.827Z,61.17
2023-04-20T05:53:33.877Z,61.67
2023-04-20T05:54:35.668Z,55.90
2023-04-20T05:55:38.416Z,61.08
2023-04-20T05:56:40.518Z,60.00
2023-04-20T05:57:43.559Z,57.35
2023-04-20T05:58:45.635Z,53.20
2023-04-20T05:59:48.417Z,57.55
2023-04-20T06:00:50.774Z,52.35
2023-04-20T06:01:53.655Z,48.28
2023-04-20T06:02:55.731Z,48.03
2023-04-20T06:03:58.984Z,48.15
2023-04-20T06:05:02.576Z,49.95
2023-04-20T06:06:05.881Z,49.90
2023-04-20T06:07:07.779Z,45.95
2023-04-20T06:08:11.451Z,46.47
2023-04-20T06:09:13.396Z,51.83
2023-04-20T06:10:16.635Z,54.08
2023-04-20T06:11:18.398Z,48.17
2023-04-20T06:12:21.186Z,41.92
2023-04-20T06:13:23.212Z,46.88
2023-04-20T06:14:26.085Z,40.50
2023-04-20T06:15:28.983Z,40.63
2023-04-20T06:16:30.929Z,47.15
2023-04-20T06:17:36.151Z,44.05
2023-04-20T06:18:38.004Z,48.10
2023-04-20T06:19:40.968Z,47.10
2023-04-20T06:20:44.700Z,47.33
2023-04-20T06:21:47.489Z,49.40
2023-04-20T06:22:50.045Z,39.58
2023-04-20T06:23:52.833Z,38.28
2023-04-20T06:24:55.087Z,45.40
2023-04-20T06:25:57.886Z,35.35
2023-04-20T06:26:59.711Z,34.63
2023-04-20T06:28:02.789Z,34.13
2023-04-20T06:29:04.820Z,37.03
2023-04-20T06:30:09.723Z,39.28
2023-04-20T06:31:12.826Z,39.47
2023-04-20T06:32:14.650Z,38.35
2023-04-20T06:33:17.938Z,38.53
2023-04-20T06:34:19.777Z,39.65
2023-04-20T06:35:23.460Z,39.95
2023-04-20T06:36:27.729Z,39.85
2023-04-20T06:37:30.480Z,36.60
2023-04-20T06:38:33.598Z,37.08
2023-04-20T06:39:35.658Z,36.70
2023-04-20T06:40:38.490Z,34.63
2023-04-20T06:41:40.742Z,34.45
2023-04-20T06:42:43.601Z,34.45
2023-04-20T06:43:46.378Z,35.17
2023-04-20T06:44:48.287Z,30.92
2023-04-20T06:45:51.334Z,29.98
2023-04-20T06:46:53.189Z,33.17
2023-04-20T06:47:56.467Z,29.45
2023-04-20T06:48:59.142Z,30.00
2023-04-20T06:50:02.765Z,31.85
2023-04-20T06:51:05.813Z,32.90
2023-04-20T06:52:09.024Z,31.33
2023-04-20T06:53:11.781Z,28.88
2023-04-20T06:54:13.767Z,31.88
2023-04-20T06:55:16.542Z,26.67
2023-04-20T06:56:18.380Z,29.25
2023-04-20T06:57:21.405Z,27.52
2023-04-20T06:58:23.228Z,28.20
2023-04-20T06:59:26.023Z,27.77
2023-04-20T07:00:29.270Z,30.00
2023-04-20T07:01:31.312Z,28.63
2023-04-20T07:02:44.274Z,32.28
2023-04-20T07:03:47.616Z,28.98
2023-04-20T07:04:49.551Z,26.95
2023-04-20T07:05:52.348Z,27.42
2023-04-20T07:06:54.611Z,31.98
2023-04-20T07:07:58.809Z,23.63
2023-04-20T07:09:01.726Z,21.95
2023-04-20T07:10:03.916Z,25.63
2023-04-20T07:11:06.898Z,22.20
2023-04-20T07:12:09.705Z,23.10
2023-04-20T07:13:16.115Z,18.25
2023-04-20T07:14:17.914Z,16.65
2023-04-20T07:15:20.835Z,17.00
2023-04-20T07:16:22.700Z,16.38
2023-04-20T07:17:29.307Z,16.87
2023-04-20T07:18:34.673Z,15.50
2023-04-20T07:19:37.251Z,19.38
2023-04-20T07:20:40.158Z,21.20
2023-04-20T07:21:42.089Z,16.30
2023-04-20T07:22:45.043Z,16.30
2023-04-20T07:23:48.403Z,16.63
2023-04-20T07:24:51.624Z,16.27
2023-04-20T07:25:53.527Z,15.77
2023-04-20T07:26:57.184Z,17.98
2023-04-20T07:28:00.013Z,18.23
2023-04-20T07:29:02.294Z,33.80
2023-04-20T07:30:06.400Z,17.30
2023-04-20T07:31:09.177Z,17.30
2023-04-20T07:32:11.403Z,16.13
2023-04-20T07:33:14.494Z,19.27
2023-04-20T07:34:16.773Z,16.88
2023-04-20T07:35:19.647Z,16.33
2023-04-20T07:36:22.509Z,16.35
2023-04-20T07:37:27.190Z,16.08
2023-04-20T07:38:29.628Z,15.45
2023-04-20T07:39:33.730Z,15.07
2023-04-20T07:40:35.553Z,18.10
2023-04-20T07:41:38.393Z,19.98
2023-04-20T07:42:40.408Z,17.25
2023-04-20T07:43:44.706Z,19.40
2023-04-20T07:44:47.576Z,19.10
2023-04-20T07:45:50.348Z,18.05
2023-04-20T07:46:52.172Z,18.17
2023-04-20T07:47:55.651Z,15.00
2023-04-20T07:48:57.593Z,16.35
2023-04-20T07:50:00.460Z,19.17
2023-04-20T07:51:03.424Z,15.75
2023-04-20T07:52:15.853Z,13.50
2023-04-20T07:53:19.539Z,14.55
2023-04-20T07:54:21.425Z,14.35
2023-04-20T07:55:25.757Z,13.88
2023-04-20T07:56:27.537Z,18.33
2023-04-20T07:57:30.668Z,17.15
2023-04-20T07:58:32.479Z,14.50
2023-04-20T07:59:35.272Z,14.45
2023-04-20T08:00:38.097Z,13.65
2023-04-20T08:01:39.881Z,15.55
2023-04-20T08:02:42.855Z,14.80
2023-04-20T08:03:46.000Z,14.82
2023-04-20T08:04:49.055Z,15.05
2023-04-20T08:05:52.084Z,16.60
2023-04-20T08:06:54.032Z,17.73
2023-04-20T08:07:56.794Z,16.13
2023-04-20T08:08:59.586Z,17.80
2023-04-20T08:10:03.358Z,14.95
2023-04-20T08:11:08.103Z,16.40
2023-04-20T08:12:11.014Z,17.40
2023-04-20T08:13:13.834Z,15.52
2023-04-20T08:14:16.327Z,16.90
2023-04-20T08:15:19.672Z,24.20
2023-04-20T08:16:22.953Z,23.33
2023-04-20T08:17:25.830Z,25.27
2023-04-20T08:18:30.386Z,18.33
2023-04-20T08:19:32.289Z,17.98
2023-04-20T08:20:35.303Z,31.58
2023-04-20T08:21:37.424Z,39.40
2023-04-20T08:22:40.774Z,25.92
2023-04-20T08:23:43.639Z,15.40
2023-04-20T08:24:45.583Z,13.90
2023-04-20T08:25:48.438Z,18.95
2023-04-20T08:26:51.587Z,15.07
2023-04-20T08:27:54.370Z,12.77
2023-04-20T08:28:56.425Z,13.85
2023-04-20T08:29:59.256Z,13.02
2023-04-20T08:31:01.273Z,16.05
2023-04-20T08:32:04.444Z,14.13
2023-04-20T08:33:07.427Z,11.20
2023-04-20T08:34:09.268Z,10.02
2023-04-20T08:35:13.490Z,12.15
2023-04-20T08:36:16.476Z,12.57
2023-04-20T08:37:19.511Z,15.97
2023-04-20T08:38:30.804Z,12.95
2023-04-20T08:39:36.529Z,13.87
2023-04-20T08:40:39.324Z,15.40
2023-04-20T08:41:41.345Z,11.13
2023-04-20T08:42:45.494Z,13.43
2023-04-20T08:43:50.003Z,10.50
2023-04-20T08:44:53.828Z,15.43
2023-04-20T08:45:58.626Z,10.77
2023-04-20T08:47:01.566Z,10.97
2023-04-20T08:48:06.602Z,11.00
2023-04-20T08:49:13.143Z,13.93
2023-04-20T08:50:16.984Z,12.53
2023-04-20T08:51:19.877Z,10.07
2023-04-20T08:52:21.729Z,9.83
2023-04-20T08:53:24.584Z,12.40
2023-04-20T08:54:27.482Z,11.10
2023-04-20T08:55:29.473Z,11.47
2023-04-20T08:56:36.970Z,10.37
2023-04-20T08:57:38.944Z,10.47
2023-04-20T08:58:43.167Z,9.53
2023-04-20T08:59:45.976Z,9.53
2023-04-20T09:00:48.438Z,11.93
2023-04-20T09:01:51.435Z,13.20
2023-04-20T09:02:55.120Z,12.13
2023-04-20T09:03:58.148Z,9.80
2023-04-20T09:05:04.727Z,9.97
2023-04-20T09:06:14.825Z,12.60
2023-04-20T09:07:22.310Z,10.90
2023-04-20T09:08:35.731Z,12.20
2023-04-20T09:09:38.718Z,11.50
2023-04-20T09:10:42.547Z,12.67
2023-04-20T09:11:45.832Z,14.27
2023-04-20T09:12:47.675Z,16.87
2023-04-20T09:14:02.761Z,11.87
2023-04-20T09:15:06.086Z,10.33
2023-04-20T09:16:12.661Z,10.50
2023-04-20T09:17:17.673Z,9.00
2023-04-20T09:18:20.668Z,11.77
2023-04-20T09:19:25.088Z,9.20
2023-04-20T09:20:31.579Z,11.07
2023-04-20T09:21:34.452Z,8.00
2023-04-20T09:22:37.147Z,7.60
2023-04-20T09:23:41.632Z,7.40
2023-04-20T09:24:43.487Z,6.07
2023-04-20T09:25:52.334Z,6.53
2023-04-20T09:26:54.210Z,9.23
2023-04-20T09:27:58.402Z,8.83
2023-04-20T09:29:03.115Z,10.27
2023-04-20T09:30:07.839Z,8.57
2023-04-20T09:31:19.125Z,6.90
2023-04-20T09:32:22.658Z,6.77
2023-04-20T09:33:29.363Z,7.83
2023-04-20T09:34:32.153Z,7.03
2023-04-20T09:35:34.172Z,7.17
2023-04-20T09:36:38.862Z,12.17
2023-04-20T09:37:47.843Z,14.37
2023-04-20T09:39:03.801Z,10.47
2023-04-20T09:40:08.719Z,7.87
2023-04-20T09:41:10.810Z,7.17
2023-04-20T09:42:15.041Z,10.87
2023-04-20T09:43:19.054Z,7.50
2023-04-20T09:44:23.197Z,8.47
2023-04-20T09:45:25.648Z,9.00
2023-04-20T09:46:31.378Z,6.40
2023-04-20T09:47:35.300Z,6.87
2023-04-20T09:48:38.130Z,8.83
2023-04-20T09:49:40.952Z,6.23
2023-04-20T09:50:49.762Z,5.67
2023-04-20T09:51:54.455Z,5.43
2023-04-20T09:52:56.871Z,4.67
2023-04-20T09:54:01.262Z,5.80
2023-04-20T09:55:03.269Z,6.33
2023-04-20T09:56:06.915Z,5.90
2023-04-20T09:57:11.315Z,4.47
2023-04-20T09:58:13.672Z,6.53
2023-04-20T09:59:18.397Z,6.30
2023-04-20T10:00:23.157Z,4.43
2023-04-20T10:01:26.188Z,6.17
2023-04-20T10:02:28.332Z,5.43
2023-04-20T10:03:31.345Z,4.50
2023-04-20T10:04:34.318Z,6.23
2023-04-20T10:05:37.220Z,4.23
2023-04-20T10:06:40.053Z,8.33
2023-04-20T10:07:42.915Z,6.50
2023-04-20T10:08:44.796Z,5.47
2023-04-20T10:09:47.611Z,6.50
2023-04-20T10:10:50.559Z,6.87
2023-04-20T10:11:55.711Z,4.20
2023-04-20T10:13:01.729Z,5.00
2023-04-20T10:14:15.602Z,7.75
2023-04-20T10:15:19.179Z,9.35
2023-04-20T10:16:22.391Z,7.78
2023-04-20T10:17:31.199Z,6.88
2023-04-20T10:18:34.302Z,6.03
2023-04-20T10:19:37.879Z,10.10
2023-04-20T10:20:40.977Z,5.18
2023-04-20T10:21:48.008Z,8.13
2023-04-20T10:22:51.298Z,7.50
2023-04-20T10:23:54.698Z,7.32
2023-04-20T10:24:56.591Z,5.93
2023-04-20T10:26:00.928Z,8.55
2023-04-20T10:27:04.177Z,6.10
2023-04-20T10:28:09.713Z,7.03
2023-04-20T10:29:13.410Z,10.55
2023-04-20T10:30:16.591Z,7.55
2023-04-20T10:31:20.785Z,10.93
2023-04-20T10:32:24.887Z,7.75
2023-04-20T10:33:28.201Z,6.90
2023-04-20T10:34:31.485Z,7.03
2023-04-20T10:35:46.020Z,6.15
2023-04-20T10:36:48.592Z,9.95
2023-04-20T10:37:52.517Z,8.70
2023-04-20T10:38:54.771Z,11.13
2023-04-20T10:39:57.573Z,6.53
2023-04-20T10:41:07.446Z,9.90
2023-04-20T10:42:09.710Z,7.83
2023-04-20T10:43:22.387Z,8.53
2023-04-20T10:44:25.351Z,7.87
2023-04-20T10:45:34.445Z,11.00
2023-04-20T10:46:37.345Z,9.80
2023-04-20T10:47:40.982Z,9.17
2023-04-20T10:48:54.161Z,8.77
2023-04-20T10:50:07.705Z,8.90
2023-04-20T10:51:10.134Z,11.27
2023-04-20T10:52:12.898Z,6.97
2023-04-20T10:53:19.218Z,8.80
2023-04-20T10:54:22.053Z,9.07
2023-04-20T10:55:26.469Z,7.80
2023-04-20T10:56:28.295Z,7.23
2023-04-20T10:57:31.562Z,29.77
2023-04-20T10:58:33.438Z,8.93
2023-04-20T10:59:37.250Z,12.67
2023-04-20T11:00:40.073Z,10.90
2023-04-20T11:01:42.701Z,10.30
2023-04-20T11:02:53.965Z,13.03
2023-04-20T11:03:56.210Z,14.50
2023-04-20T11:05:01.225Z,14.33
2023-04-20T11:06:04.111Z,8.27
2023-04-20T11:07:08.728Z,8.53
2023-04-20T11:08:10.548Z,10.80
2023-04-20T11:09:20.733Z,12.93
2023-04-20T11:10:26.886Z,9.67
2023-04-20T11:11:28.686Z,9.23
2023-04-20T11:12:39.737Z,11.43
2023-04-20T11:13:41.574Z,13.13
2023-04-20T11:14:52.864Z,13.00
2023-04-20T11:15:54.745Z,12.82
2023-04-20T11:16:57.895Z,14.98
2023-04-20T11:18:09.015Z,13.05
2023-04-20T11:19:11.965Z,9.82
2023-04-20T11:20:17.015Z,8.55
2023-04-20T11:21:19.216Z,9.85
2023-04-20T11:22:22.836Z,10.77
2023-04-20T11:23:25.927Z,11.00
2023-04-20T11:24:30.856Z,14.55
2023-04-20T11:25:32.662Z,11.40
2023-04-20T11:26:37.085Z,12.23
2023-04-20T11:27:41.063Z,10.98
2023-04-20T11:28:55.173Z,10.18
2023-04-20T11:29:59.861Z,9.18
2023-04-20T11:31:02.309Z,9.50
2023-04-20T11:32:07.360Z,10.93
2023-04-20T11:33:11.062Z,10.23
2023-04-20T11:34:18.914Z,11.23
2023-04-20T11:35:20.806Z,9.68
2023-04-20T11:36:24.833Z,12.52
2023-04-20T11:37:26.890Z,12.35
2023-04-20T11:38:31.399Z,12.20
2023-04-20T11:39:34.110Z,10.70
2023-04-20T11:40:37.176Z,12.35
2023-04-20T11:41:39.059Z,11.45
2023-04-20T11:42:42.042Z,10.77
2023-04-20T11:43:44.258Z,10.60
2023-04-20T11:44:47.082Z,13.27
2023-04-20T11:45:50.168Z,11.57
2023-04-20T11:46:54.269Z,10.25
2023-04-20T11:47:57.072Z,9.05
2023-04-20T11:49:02.195Z,11.40
2023-04-20T11:50:06.457Z,10.60
2023-04-20T11:51:09.401Z,10.57
2023-04-20T11:52:11.420Z,9.20
2023-04-20T11:53:14.806Z,8.85
2023-04-20T11:54:16.831Z,11.05
2023-04-20T11:55:20.185Z,12.68
2023-04-20T11:56:21.983Z,10.18
2023-04-20T11:57:25.670Z,11.85
2023-04-20T11:58:27.636Z,13.35
2023-04-20T11:59:30.615Z,17.58
2023-04-20T12:00:32.547Z,14.68
2023-04-20T12:01:35.896Z,11.82
2023-04-20T12:02:37.890Z,10.27
2023-04-20T12:03:40.973Z,8.27
2023-04-20T12:04:44.570Z,11.33
2023-04-20T12:05:47.626Z,12.47
2023-04-20T12:06:49.460Z,9.30
2023-04-20T12:07:52.317Z,10.00
2023-04-20T12:08:55.335Z,9.00
2023-04-20T12:09:57.127Z,9.57
2023-04-20T12:10:59.993Z,6.80
2023-04-20T12:12:02.540Z,5.30
2023-04-20T12:13:05.300Z,15.13
2023-04-20T12:14:09.770Z,6.83
2023-04-20T12:15:12.590Z,7.93
2023-04-20T12:16:15.438Z,8.63
2023-04-20T12:17:17.293Z,7.00
2023-04-20T12:18:20.499Z,7.33
2023-04-20T12:19:23.274Z,10.93
2023-04-20T12:20:26.541Z,8.43
2023-04-20T12:21:29.333Z,7.07
2023-04-20T12:22:31.184Z,8.50
2023-04-20T12:23:34.194Z,7.90
2023-04-20T12:24:36.936Z,15.67
2023-04-20T12:25:38.871Z,6.87
2023-04-20T12:26:44.648Z,8.80
2023-04-20T12:27:48.147Z,8.43
2023-04-20T12:28:52.295Z,7.27
2023-04-20T12:29:54.226Z,13.53
2023-04-20T12:30:57.017Z,5.97
2023-04-20T12:31:59.123Z,6.27
2023-04-20T12:33:02.291Z,8.10
2023-04-20T12:34:04.332Z,10.53
2023-04-20T12:35:08.431Z,7.10
2023-04-20T12:36:11.680Z,9.07
2023-04-20T12:37:15.103Z,6.37
2023-04-20T12:38:17.978Z,8.30
2023-04-20T12:39:19.900Z,6.60
2023-04-20T12:40:22.982Z,6.00
2023-04-20T12:41:25.799Z,11.13
2023-04-20T12:42:28.419Z,11.73
2023-04-20T12:43:31.544Z,6.73
2023-04-20T12:44:33.369Z,10.77
2023-04-20T12:45:36.311Z,11.17
2023-04-20T12:46:38.155Z,5.10
2023-04-20T12:47:41.298Z,9.90
2023-04-20T12:48:45.201Z,8.03
2023-04-20T12:49:48.032Z,6.40
2023-04-20T12:50:50.803Z,6.70
2023-04-20T12:51:55.377Z,8.93
2023-04-20T12:52:58.504Z,8.53
2023-04-20T12:54:01.445Z,8.57
2023-04-20T12:55:03.499Z,9.73
2023-04-20T12:56:06.776Z,20.23
2023-04-20T12:57:08.549Z,5.27
2023-04-20T12:58:12.844Z,6.63
2023-04-20T12:59:15.845Z,7.53
2023-04-20T13:00:22.230Z,5.87
2023-04-20T13:01:25.233Z,10.40
2023-04-20T13:02:28.200Z,10.47
2023-04-20T13:03:30.508Z,13.30
2023-04-20T13:04:33.667Z,8.87
2023-04-20T13:05:36.459Z,7.97
2023-04-20T13:06:39.249Z,7.97
2023-04-20T13:07:42.506Z,10.30
2023-04-20T13:08:45.831Z,21.93
2023-04-20T13:09:48.673Z,10.50
2023-04-20T13:10:51.523Z,10.23
2023-04-20T13:11:53.372Z,5.27
2023-04-20T13:12:57.772Z,13.70
2023-04-20T13:14:01.176Z,11.13
2023-04-20T13:15:05.128Z,7.37
2023-04-20T13:16:07.117Z,7.17
2023-04-20T13:17:10.026Z,10.37
2023-04-20T13:18:13.546Z,10.40
2023-04-20T13:19:16.685Z,8.53
2023-04-20T13:20:18.695Z,10.17
2023-04-20T13:21:21.518Z,11.53
2023-04-20T13:22:23.346Z,7.87
2023-04-20T13:23:27.724Z,9.27
2023-04-20T13:24:29.696Z,6.07
2023-04-20T13:25:33.755Z,8.90
2023-04-20T13:26:36.394Z,5.97
2023-04-20T13:27:39.192Z,7.03
2023-04-20T13:28:41.107Z,6.70
2023-04-20T13:29:44.134Z,8.43
2023-04-20T13:30:45.995Z,6.17
2023-04-20T13:31:49.024Z,13.80
2023-04-20T13:32:51.174Z,8.07
2023-04-20T13:33:54.721Z,6.10
2023-04-20T13:34:56.709Z,10.23
2023-04-20T13:35:59.853Z,15.47
2023-04-20T13:37:03.475Z,10.43
2023-04-20T13:38:05.422Z,5.23
2023-04-20T13:39:10.791Z,8.27
2023-04-20T13:40:13.728Z,13.20
2023-04-20T13:41:15.530Z,8.50
2023-04-20T13:42:18.361Z,10.20
2023-04-20T13:43:21.529Z,11.03
2023-04-20T13:44:24.600Z,5.23
2023-04-20T13:45:27.059Z,12.23